sensor_id;sensor_type;location;lat;lon;timestamp;P1;P2;P0
70436;PMS5003;57877;39.750;-104.894;2024-01-15T00:01:56;7;7;
70436;PMS5003;57877;39.750;-104.894;2024-01-15T00:04:21;4;4;
70436;PMS5003;57877;39.750;-104.894;2024-01-15T00:06:46;3;3;
70436;PMS5003;57877;39.750;-104.894;2024-01-15T00:09:12;3;3;
70436;PMS5003;57877;39.750;-104.894;2024-01-15T00:11:37;4;4;
70436;PMS5003;57877;39.750;-104.894;2024-01-15T00:14:02;3;3;
70436;PMS5003;57877;39.750;-104.894;2024-01-15T00:16:28;4;4;
70436;PMS5003;57877;39.750;-104.894;2024-01-15T00:18:53;5;5;
70436;PMS5003;57877;39.750;-104.894;2024-01-15T00:21:19;3;3;
70436;PMS5003;57877;39.750;-104.894;2024-01-15T00:23:44;3;2;
70436;PMS5003;57877;39.750;-104.894;2024-01-15T00:26:09;3;3;
70436;PMS5003;57877;39.750;-104.894;2024-01-15T00:28:36;3;3;
70436;PMS5003;57877;39.750;-104.894;2024-01-15T00:31:00;3;3;
70436;PMS5003;57877;39.750;-104.894;2024-01-15T00:33:26;3;3;
70436;PMS5003;57877;39.750;-104.894;2024-01-15T00:35:51;3;3;
70436;PMS5003;57877;39.750;-104.894;2024-01-15T00:38:16;4;4;
70436;PMS5003;57877;39.750;-104.894;2024-01-15T00:40:42;3;3;
70436;PMS5003;57877;39.750;-104.894;2024-01-15T00:43:08;4;4;
70436;PMS5003;57877;39.750;-104.894;2024-01-15T00:45:33;5;4;
70436;PMS5003;57877;39.750;-104.894;2024-01-15T00:47:58;4;4;
70436;PMS5003;57877;39.750;-104.894;2024-01-15T00:50:24;5;5;
70436;PMS5003;57877;39.750;-104.894;2024-01-15T00:52:49;3;3;
70436;PMS5003;57877;39.750;-104.894;2024-01-15T00:55:15;4;4;
70436;PMS5003;57877;39.750;-104.894;2024-01-15T00:57:40;5;4;
70436;PMS5003;57877;39.750;-104.894;2024-01-15T01:00:06;5;5;
70436;PMS5003;57877;39.750;-104.894;2024-01-15T01:02:31;6;6;
70436;PMS5003;57877;39.750;-104.894;2024-01-15T01:04:56;4;4;
70436;PMS5003;57877;39.750;-104.894;2024-01-15T01:07:22;6;5;
70436;PMS5003;57877;39.750;-104.894;2024-01-15T01:09:47;5;5;
70436;PMS5003;57877;39.750;-104.894;2024-01-15T01:12:13;6;5;
70436;PMS5003;57877;39.750;-104.894;2024-01-15T01:14:38;7;5;
70436;PMS5003;57877;39.750;-104.894;2024-01-15T01:17:04;5;5;
70436;PMS5003;57877;39.750;-104.894;2024-01-15T01:19:29;6;6;
70436;PMS5003;57877;39.750;-104.894;2024-01-15T01:21:55;5;5;
70436;PMS5003;57877;39.750;-104.894;2024-01-15T01:24:20;7;7;
70436;PMS5003;57877;39.750;-104.894;2024-01-15T01:26:46;8;7;
70436;PMS5003;57877;39.750;-104.894;2024-01-15T01:29:11;6;6;
70436;PMS5003;57877;39.750;-104.894;2024-01-15T01:31:38;11;10;
70436;PMS5003;57877;39.750;-104.894;2024-01-15T01:34:02;7;7;
70436;PMS5003;57877;39.750;-104.894;2024-01-15T01:36:27;8;7;
70436;PMS5003;57877;39.750;-104.894;2024-01-15T01:38:54;7;7;
70436;PMS5003;57877;39.750;-104.894;2024-01-15T01:41:18;7;7;
70436;PMS5003;57877;39.750;-104.894;2024-01-15T01:43:44;7;7;
70436;PMS5003;57877;39.750;-104.894;2024-01-15T01:46:09;7;7;
70436;PMS5003;57877;39.750;-104.894;2024-01-15T01:48:35;8;7;
70436;PMS5003;57877;39.750;-104.894;2024-01-15T01:51:01;7;7;
70436;PMS5003;57877;39.750;-104.894;2024-01-15T01:53:26;9;8;
70436;PMS5003;57877;39.750;-104.894;2024-01-15T01:55:51;9;7;
70436;PMS5003;57877;39.750;-104.894;2024-01-15T01:58:16;14;13;
70436;PMS5003;57877;39.750;-104.894;2024-01-15T02:00:42;13;12;
70436;PMS5003;57877;39.750;-104.894;2024-01-15T02:03:08;6;6;
70436;PMS5003;57877;39.750;-104.894;2024-01-15T02:05:33;7;7;
70436;PMS5003;57877;39.750;-104.894;2024-01-15T02:07:58;12;11;
70436;PMS5003;57877;39.750;-104.894;2024-01-15T02:10:24;22;21;
70436;PMS5003;57877;39.750;-104.894;2024-01-15T02:12:49;11;9;
70436;PMS5003;57877;39.750;-104.894;2024-01-15T02:15:15;6;6;
70436;PMS5003;57877;39.750;-104.894;2024-01-15T02:20:06;9;8;
70436;PMS5003;57877;39.750;-104.894;2024-01-15T02:22:31;6;5;
70436;PMS5003;57877;39.750;-104.894;2024-01-15T02:24:57;6;5;
70436;PMS5003;57877;39.750;-104.894;2024-01-15T02:27:22;7;7;
70436;PMS5003;57877;39.750;-104.894;2024-01-15T02:29:48;10;7;
70436;PMS5003;57877;39.750;-104.894;2024-01-15T02:32:13;6;6;
70436;PMS5003;57877;39.750;-104.894;2024-01-15T02:34:39;7;7;
70436;PMS5003;57877;39.750;-104.894;2024-01-15T02:37:04;6;6;
70436;PMS5003;57877;39.750;-104.894;2024-01-15T02:39:29;8;7;
70436;PMS5003;57877;39.750;-104.894;2024-01-15T02:41:55;7;5;
70436;PMS5003;57877;39.750;-104.894;2024-01-15T02:44:21;5;4;
70436;PMS5003;57877;39.750;-104.894;2024-01-15T02:46:46;11;10;
70436;PMS5003;57877;39.750;-104.894;2024-01-15T02:49:11;7;7;
70436;PMS5003;57877;39.750;-104.894;2024-01-15T02:51:37;6;6;
70436;PMS5003;57877;39.750;-104.894;2024-01-15T02:54:02;10;9;
70436;PMS5003;57877;39.750;-104.894;2024-01-15T02:56:27;7;7;
70436;PMS5003;57877;39.750;-104.894;2024-01-15T02:58:53;6;6;
70436;PMS5003;57877;39.750;-104.894;2024-01-15T03:01:18;6;6;
70436;PMS5003;57877;39.750;-104.894;2024-01-15T03:03:44;7;7;
70436;PMS5003;57877;39.750;-104.894;2024-01-15T03:06:10;9;7;
70436;PMS5003;57877;39.750;-104.894;2024-01-15T03:08:34;7;7;
70436;PMS5003;57877;39.750;-104.894;2024-01-15T03:11:00;7;7;
70436;PMS5003;57877;39.750;-104.894;2024-01-15T03:13:25;6;6;
70436;PMS5003;57877;39.750;-104.894;2024-01-15T03:15:51;6;6;
70436;PMS5003;57877;39.750;-104.894;2024-01-15T03:18:16;8;7;
70436;PMS5003;57877;39.750;-104.894;2024-01-15T03:20:41;9;8;
70436;PMS5003;57877;39.750;-104.894;2024-01-15T03:23:07;7;7;
70436;PMS5003;57877;39.750;-104.894;2024-01-15T03:25:32;11;9;
70436;PMS5003;57877;39.750;-104.894;2024-01-15T03:27:58;10;9;
70436;PMS5003;57877;39.750;-104.894;2024-01-15T03:30:23;14;13;
70436;PMS5003;57877;39.750;-104.894;2024-01-15T03:32:48;17;16;
70436;PMS5003;57877;39.750;-104.894;2024-01-15T03:35:14;15;15;
70436;PMS5003;57877;39.750;-104.894;2024-01-15T03:37:39;15;15;
70436;PMS5003;57877;39.750;-104.894;2024-01-15T03:40:05;15;15;
70436;PMS5003;57877;39.750;-104.894;2024-01-15T03:42:30;15;14;
70436;PMS5003;57877;39.750;-104.894;2024-01-15T03:44:56;13;12;
70436;PMS5003;57877;39.750;-104.894;2024-01-15T03:47:21;11;11;
70436;PMS5003;57877;39.750;-104.894;2024-01-15T03:49:46;12;12;
70436;PMS5003;57877;39.750;-104.894;2024-01-15T03:52:12;14;13;
70436;PMS5003;57877;39.750;-104.894;2024-01-15T03:54:37;17;17;
70436;PMS5003;57877;39.750;-104.894;2024-01-15T03:57:03;17;16;
70436;PMS5003;57877;39.750;-104.894;2024-01-15T03:59:28;14;14;
70436;PMS5003;57877;39.750;-104.894;2024-01-15T04:01:53;14;14;
70436;PMS5003;57877;39.750;-104.894;2024-01-15T04:04:19;14;11;
70436;PMS5003;57877;39.750;-104.894;2024-01-15T04:06:44;12;11;
70436;PMS5003;57877;39.750;-104.894;2024-01-15T04:09:11;8;7;
70436;PMS5003;57877;39.750;-104.894;2024-01-15T04:11:35;10;9;
70436;PMS5003;57877;39.750;-104.894;2024-01-15T04:14:01;11;7;
70436;PMS5003;57877;39.750;-104.894;2024-01-15T04:16:26;5;5;
70436;PMS5003;57877;39.750;-104.894;2024-01-15T04:18:52;7;5;
70436;PMS5003;57877;39.750;-104.894;2024-01-15T04:21:17;6;5;
70436;PMS5003;57877;39.750;-104.894;2024-01-15T04:23:42;4;4;
70436;PMS5003;57877;39.750;-104.894;2024-01-15T04:26:08;3;3;
70436;PMS5003;57877;39.750;-104.894;2024-01-15T04:28:33;5;5;
70436;PMS5003;57877;39.750;-104.894;2024-01-15T04:30:58;4;4;
70436;PMS5003;57877;39.750;-104.894;2024-01-15T04:33:24;5;4;
70436;PMS5003;57877;39.750;-104.894;2024-01-15T04:35:49;6;6;
70436;PMS5003;57877;39.750;-104.894;2024-01-15T04:38:15;3;3;
70436;PMS5003;57877;39.750;-104.894;2024-01-15T04:40:41;5;5;
70436;PMS5003;57877;39.750;-104.894;2024-01-15T04:43:06;4;4;
70436;PMS5003;57877;39.750;-104.894;2024-01-15T04:45:32;6;6;
70436;PMS5003;57877;39.750;-104.894;2024-01-15T04:47:57;5;5;
70436;PMS5003;57877;39.750;-104.894;2024-01-15T04:50:22;4;4;
70436;PMS5003;57877;39.750;-104.894;2024-01-15T04:52:48;6;6;
70436;PMS5003;57877;39.750;-104.894;2024-01-15T04:55:13;5;5;
70436;PMS5003;57877;39.750;-104.894;2024-01-15T04:57:39;6;6;
70436;PMS5003;57877;39.750;-104.894;2024-01-15T05:00:05;5;5;
70436;PMS5003;57877;39.750;-104.894;2024-01-15T05:02:30;7;6;
70436;PMS5003;57877;39.750;-104.894;2024-01-15T05:04:55;5;5;
70436;PMS5003;57877;39.750;-104.894;2024-01-15T05:07:21;5;4;
70436;PMS5003;57877;39.750;-104.894;2024-01-15T05:09:46;6;6;
70436;PMS5003;57877;39.750;-104.894;2024-01-15T05:12:12;5;5;
70436;PMS5003;57877;39.750;-104.894;2024-01-15T05:14:37;5;5;
70436;PMS5003;57877;39.750;-104.894;2024-01-15T05:17:03;3;3;
70436;PMS5003;57877;39.750;-104.894;2024-01-15T05:19:28;4;3;
70436;PMS5003;57877;39.750;-104.894;2024-01-15T05:21:53;6;5;
70436;PMS5003;57877;39.750;-104.894;2024-01-15T05:24:19;4;3;
70436;PMS5003;57877;39.750;-104.894;2024-01-15T05:26:44;3;3;
70436;PMS5003;57877;39.750;-104.894;2024-01-15T05:29:10;6;5;
70436;PMS5003;57877;39.750;-104.894;2024-01-15T05:31:35;5;4;
70436;PMS5003;57877;39.750;-104.894;2024-01-15T05:34:01;5;3;
70436;PMS5003;57877;39.750;-104.894;2024-01-15T05:36:26;4;4;
70436;PMS5003;57877;39.750;-104.894;2024-01-15T05:38:52;4;4;
70436;PMS5003;57877;39.750;-104.894;2024-01-15T05:41:17;4;4;
70436;PMS5003;57877;39.750;-104.894;2024-01-15T05:43:43;5;4;
70436;PMS5003;57877;39.750;-104.894;2024-01-15T05:46:08;3;3;
70436;PMS5003;57877;39.750;-104.894;2024-01-15T05:48:34;4;3;
70436;PMS5003;57877;39.750;-104.894;2024-01-15T05:50:59;5;5;
70436;PMS5003;57877;39.750;-104.894;2024-01-15T05:53:25;4;3;
70436;PMS5003;57877;39.750;-104.894;2024-01-15T05:55:50;6;5;
70436;PMS5003;57877;39.750;-104.894;2024-01-15T05:58:16;4;4;
70436;PMS5003;57877;39.750;-104.894;2024-01-15T06:00:41;5;5;
70436;PMS5003;57877;39.750;-104.894;2024-01-15T06:03:07;3;3;
70436;PMS5003;57877;39.750;-104.894;2024-01-15T06:05:32;4;4;
70436;PMS5003;57877;39.750;-104.894;2024-01-15T06:07:57;3;3;
70436;PMS5003;57877;39.750;-104.894;2024-01-15T06:10:23;6;4;
70436;PMS5003;57877;39.750;-104.894;2024-01-15T06:12:48;3;3;
70436;PMS5003;57877;39.750;-104.894;2024-01-15T06:15:14;3;3;
70436;PMS5003;57877;39.750;-104.894;2024-01-15T06:17:39;3;3;
70436;PMS5003;57877;39.750;-104.894;2024-01-15T06:20:05;4;4;
70436;PMS5003;57877;39.750;-104.894;2024-01-15T06:22:30;4;4;
70436;PMS5003;57877;39.750;-104.894;2024-01-15T06:24:56;3;3;
70436;PMS5003;57877;39.750;-104.894;2024-01-15T06:27:21;4;3;
70436;PMS5003;57877;39.750;-104.894;2024-01-15T06:29:47;3;3;
70436;PMS5003;57877;39.750;-104.894;2024-01-15T06:32:13;5;5;
70436;PMS5003;57877;39.750;-104.894;2024-01-15T06:34:38;5;5;
70436;PMS5003;57877;39.750;-104.894;2024-01-15T06:37:03;3;3;
70436;PMS5003;57877;39.750;-104.894;2024-01-15T06:39:29;4;4;
70436;PMS5003;57877;39.750;-104.894;2024-01-15T06:41:54;4;4;
70436;PMS5003;57877;39.750;-104.894;2024-01-15T06:44:20;4;4;
70436;PMS5003;57877;39.750;-104.894;2024-01-15T06:46:46;5;5;
70436;PMS5003;57877;39.750;-104.894;2024-01-15T06:49:11;4;4;
70436;PMS5003;57877;39.750;-104.894;2024-01-15T06:51:36;4;3;
70436;PMS5003;57877;39.750;-104.894;2024-01-15T06:54:02;3;3;
70436;PMS5003;57877;39.750;-104.894;2024-01-15T06:56:27;3;3;
70436;PMS5003;57877;39.750;-104.894;2024-01-15T06:58:53;3;3;
70436;PMS5003;57877;39.750;-104.894;2024-01-15T07:01:18;4;4;
70436;PMS5003;57877;39.750;-104.894;2024-01-15T07:03:43;4;4;
70436;PMS5003;57877;39.750;-104.894;2024-01-15T07:06:09;3;3;
70436;PMS5003;57877;39.750;-104.894;2024-01-15T07:08:34;5;4;
70436;PMS5003;57877;39.750;-104.894;2024-01-15T07:11:03;4;4;
70436;PMS5003;57877;39.750;-104.894;2024-01-15T07:13:25;5;4;
70436;PMS5003;57877;39.750;-104.894;2024-01-15T07:15:51;4;4;
70436;PMS5003;57877;39.750;-104.894;2024-01-15T07:18:16;5;4;
70436;PMS5003;57877;39.750;-104.894;2024-01-15T07:20:42;5;5;
70436;PMS5003;57877;39.750;-104.894;2024-01-15T07:23:07;3;3;
70436;PMS5003;57877;39.750;-104.894;2024-01-15T07:25:32;4;3;
70436;PMS5003;57877;39.750;-104.894;2024-01-15T07:27:58;3;3;
70436;PMS5003;57877;39.750;-104.894;2024-01-15T07:30:23;4;3;
70436;PMS5003;57877;39.750;-104.894;2024-01-15T07:32:49;4;3;
70436;PMS5003;57877;39.750;-104.894;2024-01-15T07:35:14;3;3;
70436;PMS5003;57877;39.750;-104.894;2024-01-15T07:37:40;3;3;
70436;PMS5003;57877;39.750;-104.894;2024-01-15T07:40:05;3;3;
70436;PMS5003;57877;39.750;-104.894;2024-01-15T07:42:31;3;3;
70436;PMS5003;57877;39.750;-104.894;2024-01-15T07:44:56;4;4;
70436;PMS5003;57877;39.750;-104.894;2024-01-15T07:47:22;3;3;
70436;PMS5003;57877;39.750;-104.894;2024-01-15T07:49:47;4;3;
70436;PMS5003;57877;39.750;-104.894;2024-01-15T07:52:13;3;3;
70436;PMS5003;57877;39.750;-104.894;2024-01-15T07:54:38;3;3;
70436;PMS5003;57877;39.750;-104.894;2024-01-15T07:57:04;3;3;
70436;PMS5003;57877;39.750;-104.894;2024-01-15T07:59:29;3;3;
70436;PMS5003;57877;39.750;-104.894;2024-01-15T08:01:55;3;3;
70436;PMS5003;57877;39.750;-104.894;2024-01-15T08:04:20;3;3;
70436;PMS5003;57877;39.750;-104.894;2024-01-15T08:06:46;3;3;
70436;PMS5003;57877;39.750;-104.894;2024-01-15T08:09:11;3;3;
70436;PMS5003;57877;39.750;-104.894;2024-01-15T08:11:38;3;3;
70436;PMS5003;57877;39.750;-104.894;2024-01-15T08:14:02;3;3;
70436;PMS5003;57877;39.750;-104.894;2024-01-15T08:16:28;6;5;
70436;PMS5003;57877;39.750;-104.894;2024-01-15T08:18:53;3;3;
70436;PMS5003;57877;39.750;-104.894;2024-01-15T08:21:19;3;3;
70436;PMS5003;57877;39.750;-104.894;2024-01-15T08:23:44;3;3;
70436;PMS5003;57877;39.750;-104.894;2024-01-15T08:26:10;5;4;
70436;PMS5003;57877;39.750;-104.894;2024-01-15T08:28:35;3;3;
70436;PMS5003;57877;39.750;-104.894;2024-01-15T08:31:00;3;3;
70436;PMS5003;57877;39.750;-104.894;2024-01-15T08:33:26;4;3;
70436;PMS5003;57877;39.750;-104.894;2024-01-15T08:35:51;4;4;
70436;PMS5003;57877;39.750;-104.894;2024-01-15T08:38:18;5;5;
70436;PMS5003;57877;39.750;-104.894;2024-01-15T08:40:42;5;5;
70436;PMS5003;57877;39.750;-104.894;2024-01-15T08:43:08;5;5;
70436;PMS5003;57877;39.750;-104.894;2024-01-15T08:45:33;4;4;
70436;PMS5003;57877;39.750;-104.894;2024-01-15T08:47:59;6;4;
70436;PMS5003;57877;39.750;-104.894;2024-01-15T08:50:24;6;6;
70436;PMS5003;57877;39.750;-104.894;2024-01-15T08:52:50;3;3;
70436;PMS5003;57877;39.750;-104.894;2024-01-15T08:55:15;4;4;
70436;PMS5003;57877;39.750;-104.894;2024-01-15T08:57:40;4;3;
70436;PMS5003;57877;39.750;-104.894;2024-01-15T09:00:06;5;4;
70436;PMS5003;57877;39.750;-104.894;2024-01-15T09:02:31;4;4;
70436;PMS5003;57877;39.750;-104.894;2024-01-15T09:04:57;5;5;
70436;PMS5003;57877;39.750;-104.894;2024-01-15T09:07:22;3;3;
70436;PMS5003;57877;39.750;-104.894;2024-01-15T09:09:48;6;6;
70436;PMS5003;57877;39.750;-104.894;2024-01-15T09:12:13;4;4;
70436;PMS5003;57877;39.750;-104.894;2024-01-15T09:14:39;4;4;
70436;PMS5003;57877;39.750;-104.894;2024-01-15T09:17:04;6;5;
70436;PMS5003;57877;39.750;-104.894;2024-01-15T09:19:30;5;5;
70436;PMS5003;57877;39.750;-104.894;2024-01-15T09:21:55;5;4;
70436;PMS5003;57877;39.750;-104.894;2024-01-15T09:24:21;6;6;
70436;PMS5003;57877;39.750;-104.894;2024-01-15T09:26:46;5;4;
70436;PMS5003;57877;39.750;-104.894;2024-01-15T09:29:12;9;8;
70436;PMS5003;57877;39.750;-104.894;2024-01-15T09:31:37;9;9;
70436;PMS5003;57877;39.750;-104.894;2024-01-15T09:34:03;6;5;
70436;PMS5003;57877;39.750;-104.894;2024-01-15T09:36:29;6;6;
70436;PMS5003;57877;39.750;-104.894;2024-01-15T09:38:54;4;4;
70436;PMS5003;57877;39.750;-104.894;2024-01-15T09:41:20;5;5;
70436;PMS5003;57877;39.750;-104.894;2024-01-15T09:43:45;6;5;
70436;PMS5003;57877;39.750;-104.894;2024-01-15T09:46:11;6;6;
70436;PMS5003;57877;39.750;-104.894;2024-01-15T09:48:36;6;6;
70436;PMS5003;57877;39.750;-104.894;2024-01-15T09:51:02;4;4;
70436;PMS5003;57877;39.750;-104.894;2024-01-15T09:53:27;6;6;
70436;PMS5003;57877;39.750;-104.894;2024-01-15T09:55:53;6;6;
70436;PMS5003;57877;39.750;-104.894;2024-01-15T09:58:18;6;5;
70436;PMS5003;57877;39.750;-104.894;2024-01-15T10:00:44;6;5;
70436;PMS5003;57877;39.750;-104.894;2024-01-15T10:03:09;4;4;
70436;PMS5003;57877;39.750;-104.894;2024-01-15T10:05:34;3;3;
70436;PMS5003;57877;39.750;-104.894;2024-01-15T10:08:00;5;5;
70436;PMS5003;57877;39.750;-104.894;2024-01-15T10:10:25;14;14;
70436;PMS5003;57877;39.750;-104.894;2024-01-15T10:12:51;7;6;
70436;PMS5003;57877;39.750;-104.894;2024-01-15T10:15:16;6;6;
70436;PMS5003;57877;39.750;-104.894;2024-01-15T10:17:42;10;9;
70436;PMS5003;57877;39.750;-104.894;2024-01-15T10:20:08;13;12;
70436;PMS5003;57877;39.750;-104.894;2024-01-15T10:22:33;9;8;
70436;PMS5003;57877;39.750;-104.894;2024-01-15T10:24:58;6;6;
70436;PMS5003;57877;39.750;-104.894;2024-01-15T10:27:24;6;6;
70436;PMS5003;57877;39.750;-104.894;2024-01-15T10:29:49;6;6;
70436;PMS5003;57877;39.750;-104.894;2024-01-15T10:32:15;6;6;
70436;PMS5003;57877;39.750;-104.894;2024-01-15T10:34:40;8;7;
70436;PMS5003;57877;39.750;-104.894;2024-01-15T10:37:07;7;7;
70436;PMS5003;57877;39.750;-104.894;2024-01-15T10:39:31;6;5;
70436;PMS5003;57877;39.750;-104.894;2024-01-15T10:41:57;12;10;
70436;PMS5003;57877;39.750;-104.894;2024-01-15T10:44:22;9;7;
70436;PMS5003;57877;39.750;-104.894;2024-01-15T10:46:48;8;8;
70436;PMS5003;57877;39.750;-104.894;2024-01-15T10:49:13;6;6;
70436;PMS5003;57877;39.750;-104.894;2024-01-15T10:51:39;6;6;
70436;PMS5003;57877;39.750;-104.894;2024-01-15T10:54:04;9;9;
70436;PMS5003;57877;39.750;-104.894;2024-01-15T10:56:30;6;6;
70436;PMS5003;57877;39.750;-104.894;2024-01-15T10:58:55;6;6;
70436;PMS5003;57877;39.750;-104.894;2024-01-15T11:01:21;9;9;
70436;PMS5003;57877;39.750;-104.894;2024-01-15T11:03:46;6;6;
70436;PMS5003;57877;39.750;-104.894;2024-01-15T11:08:37;12;9;
70436;PMS5003;57877;39.750;-104.894;2024-01-15T11:11:03;12;11;
70436;PMS5003;57877;39.750;-104.894;2024-01-15T11:15:55;12;11;
70436;PMS5003;57877;39.750;-104.894;2024-01-15T11:18:19;13;13;
70436;PMS5003;57877;39.750;-104.894;2024-01-15T11:23:10;4;4;
70436;PMS5003;57877;39.750;-104.894;2024-01-15T11:25:36;3;3;
70436;PMS5003;57877;39.750;-104.894;2024-01-15T11:28:01;3;3;
70436;PMS5003;57877;39.750;-104.894;2024-01-15T11:30:27;3;3;
70436;PMS5003;57877;39.750;-104.894;2024-01-15T11:32:52;2;2;
70436;PMS5003;57877;39.750;-104.894;2024-01-15T11:35:18;2;1;
70436;PMS5003;57877;39.750;-104.894;2024-01-15T11:40:09;1;0;
70436;PMS5003;57877;39.750;-104.894;2024-01-15T11:42:35;0;0;
70436;PMS5003;57877;39.750;-104.894;2024-01-15T11:45:00;1;1;
70436;PMS5003;57877;39.750;-104.894;2024-01-15T11:52:17;1;0;
70436;PMS5003;57877;39.750;-104.894;2024-01-15T11:54:44;2;1;
70436;PMS5003;57877;39.750;-104.894;2024-01-15T11:57:09;0;0;
70436;PMS5003;57877;39.750;-104.894;2024-01-15T11:59:34;2;1;
70436;PMS5003;57877;39.750;-104.894;2024-01-15T12:01:59;0;0;
70436;PMS5003;57877;39.750;-104.894;2024-01-15T12:04:25;0;0;
70436;PMS5003;57877;39.750;-104.894;2024-01-15T12:06:50;0;0;
70436;PMS5003;57877;39.750;-104.894;2024-01-15T12:09:18;0;0;
70436;PMS5003;57877;39.750;-104.894;2024-01-15T12:11:42;1;1;
70436;PMS5003;57877;39.750;-104.894;2024-01-15T12:14:07;0;0;
70436;PMS5003;57877;39.750;-104.894;2024-01-15T12:16:32;0;0;
70436;PMS5003;57877;39.750;-104.894;2024-01-15T12:18:58;0;0;
70436;PMS5003;57877;39.750;-104.894;2024-01-15T12:21:26;0;0;
70436;PMS5003;57877;39.750;-104.894;2024-01-15T12:23:49;0;0;
70436;PMS5003;57877;39.750;-104.894;2024-01-15T12:26:14;1;0;
70436;PMS5003;57877;39.750;-104.894;2024-01-15T12:28:40;0;0;
70436;PMS5003;57877;39.750;-104.894;2024-01-15T12:31:05;0;0;
70436;PMS5003;57877;39.750;-104.894;2024-01-15T12:33:31;0;0;
70436;PMS5003;57877;39.750;-104.894;2024-01-15T12:35:57;0;0;
70436;PMS5003;57877;39.750;-104.894;2024-01-15T12:38:22;0;0;
70436;PMS5003;57877;39.750;-104.894;2024-01-15T12:40:48;0;0;
70436;PMS5003;57877;39.750;-104.894;2024-01-15T12:43:13;0;0;
70436;PMS5003;57877;39.750;-104.894;2024-01-15T12:45:40;2;1;
70436;PMS5003;57877;39.750;-104.894;2024-01-15T12:48:05;0;0;
70436;PMS5003;57877;39.750;-104.894;2024-01-15T12:50:30;0;0;
70436;PMS5003;57877;39.750;-104.894;2024-01-15T12:52:56;0;0;
70436;PMS5003;57877;39.750;-104.894;2024-01-15T12:55:21;0;0;
70436;PMS5003;57877;39.750;-104.894;2024-01-15T12:57:47;0;0;
70436;PMS5003;57877;39.750;-104.894;2024-01-15T13:00:13;0;0;
70436;PMS5003;57877;39.750;-104.894;2024-01-15T13:02:38;0;0;
70436;PMS5003;57877;39.750;-104.894;2024-01-15T13:05:04;0;0;
70436;PMS5003;57877;39.750;-104.894;2024-01-15T13:07:29;0;0;
70436;PMS5003;57877;39.750;-104.894;2024-01-15T13:09:55;0;0;
70436;PMS5003;57877;39.750;-104.894;2024-01-15T13:12:20;0;0;
70436;PMS5003;57877;39.750;-104.894;2024-01-15T13:14:46;0;0;
70436;PMS5003;57877;39.750;-104.894;2024-01-15T13:17:11;0;0;
70436;PMS5003;57877;39.750;-104.894;2024-01-15T13:19:37;0;0;
70436;PMS5003;57877;39.750;-104.894;2024-01-15T13:22:04;0;0;
70436;PMS5003;57877;39.750;-104.894;2024-01-15T13:24:28;0;0;
70436;PMS5003;57877;39.750;-104.894;2024-01-15T13:26:54;0;0;
70436;PMS5003;57877;39.750;-104.894;2024-01-15T13:29:19;0;0;
70436;PMS5003;57877;39.750;-104.894;2024-01-15T13:31:45;0;0;
70436;PMS5003;57877;39.750;-104.894;2024-01-15T13:34:11;10;10;
70436;PMS5003;57877;39.750;-104.894;2024-01-15T13:36:36;28;28;
70436;PMS5003;57877;39.750;-104.894;2024-01-15T13:39:02;0;0;
70436;PMS5003;57877;39.750;-104.894;2024-01-15T13:41:27;0;0;
70436;PMS5003;57877;39.750;-104.894;2024-01-15T13:43:54;0;0;
70436;PMS5003;57877;39.750;-104.894;2024-01-15T13:46:19;0;0;
70436;PMS5003;57877;39.750;-104.894;2024-01-15T13:48:44;0;0;
70436;PMS5003;57877;39.750;-104.894;2024-01-15T13:51:10;0;0;
70436;PMS5003;57877;39.750;-104.894;2024-01-15T13:53:36;0;0;
70436;PMS5003;57877;39.750;-104.894;2024-01-15T13:56:01;0;0;
70436;PMS5003;57877;39.750;-104.894;2024-01-15T13:58:27;0;0;
70436;PMS5003;57877;39.750;-104.894;2024-01-15T14:00:53;0;0;
70436;PMS5003;57877;39.750;-104.894;2024-01-15T14:03:19;0;0;
70436;PMS5003;57877;39.750;-104.894;2024-01-15T14:05:44;0;0;
70436;PMS5003;57877;39.750;-104.894;2024-01-15T14:08:10;0;0;
70436;PMS5003;57877;39.750;-104.894;2024-01-15T14:10:36;0;0;
70436;PMS5003;57877;39.750;-104.894;2024-01-15T14:13:01;0;0;
70436;PMS5003;57877;39.750;-104.894;2024-01-15T14:15:27;0;0;
70436;PMS5003;57877;39.750;-104.894;2024-01-15T14:17:52;0;0;
70436;PMS5003;57877;39.750;-104.894;2024-01-15T14:20:18;0;0;
70436;PMS5003;57877;39.750;-104.894;2024-01-15T14:22:44;0;0;
70436;PMS5003;57877;39.750;-104.894;2024-01-15T14:25:09;0;0;
70436;PMS5003;57877;39.750;-104.894;2024-01-15T14:27:35;0;0;
70436;PMS5003;57877;39.750;-104.894;2024-01-15T14:30:01;0;0;
70436;PMS5003;57877;39.750;-104.894;2024-01-15T14:32:26;0;0;
70436;PMS5003;57877;39.750;-104.894;2024-01-15T14:34:52;0;0;
70436;PMS5003;57877;39.750;-104.894;2024-01-15T14:37:18;0;0;
70436;PMS5003;57877;39.750;-104.894;2024-01-15T14:39:43;0;0;
70436;PMS5003;57877;39.750;-104.894;2024-01-15T14:42:09;0;0;
70436;PMS5003;57877;39.750;-104.894;2024-01-15T14:44:35;0;0;
70436;PMS5003;57877;39.750;-104.894;2024-01-15T14:47:00;0;0;
70436;PMS5003;57877;39.750;-104.894;2024-01-15T14:49:26;0;0;
70436;PMS5003;57877;39.750;-104.894;2024-01-15T14:51:52;0;0;
70436;PMS5003;57877;39.750;-104.894;2024-01-15T14:54:17;0;0;
70436;PMS5003;57877;39.750;-104.894;2024-01-15T14:56:43;0;0;
70436;PMS5003;57877;39.750;-104.894;2024-01-15T14:59:09;0;0;
70436;PMS5003;57877;39.750;-104.894;2024-01-15T15:01:34;0;0;
70436;PMS5003;57877;39.750;-104.894;2024-01-15T15:04:00;0;0;
70436;PMS5003;57877;39.750;-104.894;2024-01-15T15:06:26;0;0;
70436;PMS5003;57877;39.750;-104.894;2024-01-15T15:08:52;0;0;
70436;PMS5003;57877;39.750;-104.894;2024-01-15T15:11:17;0;0;
70436;PMS5003;57877;39.750;-104.894;2024-01-15T15:13:43;0;0;
70436;PMS5003;57877;39.750;-104.894;2024-01-15T15:16:09;0;0;
70436;PMS5003;57877;39.750;-104.894;2024-01-15T15:18:34;0;0;
70436;PMS5003;57877;39.750;-104.894;2024-01-15T15:21:00;0;0;
70436;PMS5003;57877;39.750;-104.894;2024-01-15T15:23:25;0;0;
70436;PMS5003;57877;39.750;-104.894;2024-01-15T15:25:51;0;0;
70436;PMS5003;57877;39.750;-104.894;2024-01-15T15:28:16;0;0;
70436;PMS5003;57877;39.750;-104.894;2024-01-15T15:30:42;0;0;
70436;PMS5003;57877;39.750;-104.894;2024-01-15T15:33:07;0;0;
70436;PMS5003;57877;39.750;-104.894;2024-01-15T15:35:33;0;0;
70436;PMS5003;57877;39.750;-104.894;2024-01-15T15:37:59;0;0;
70436;PMS5003;57877;39.750;-104.894;2024-01-15T15:40:24;0;0;
70436;PMS5003;57877;39.750;-104.894;2024-01-15T15:42:50;0;0;
70436;PMS5003;57877;39.750;-104.894;2024-01-15T15:45:16;0;0;
70436;PMS5003;57877;39.750;-104.894;2024-01-15T15:47:41;0;0;
70436;PMS5003;57877;39.750;-104.894;2024-01-15T15:50:07;0;0;
70436;PMS5003;57877;39.750;-104.894;2024-01-15T15:52:32;0;0;
70436;PMS5003;57877;39.750;-104.894;2024-01-15T15:54:58;0;0;
70436;PMS5003;57877;39.750;-104.894;2024-01-15T15:57:24;0;0;
70436;PMS5003;57877;39.750;-104.894;2024-01-15T15:59:49;0;0;
70436;PMS5003;57877;39.750;-104.894;2024-01-15T16:02:15;0;0;
70436;PMS5003;57877;39.750;-104.894;2024-01-15T16:04:40;0;0;